Time;durP1;ratioP1;P1;durP2;ratioP2;P2;SDS_P1;SDS_P2;PMS_P1;PMS_P2;Temp;Humidity;BMP_temperature;BMP_pressure;BME280_temperature;BME280_humidity;BME280_pressure;Samples;Min_cycle;Max_cycle;Signal;HPM_P1;HPM_P2
2021/05/01 00:01:21;;;;;;;18.00;14.00;;;;;;;7.60;64.37;98304.73;261785;1093;24383;-71
2021/05/01 00:06:26;;;;;;;21.80;12.57;;;;;;;7.55;64.50;98299.43;261868;1093;25862;-71
2021/05/01 00:11:30;;;;;;;15.20;12.13;;;;;;;7.51;64.55;98295.73;262558;1092;25885;-71
2021/05/01 00:16:33;;;;;;;18.75;13.55;;;;;;;7.49;64.69;98304.01;261821;1092;26041;-70
2021/05/01 00:21:36;;;;;;;17.43;14.23;;;;;;;7.45;65.06;98305.64;262014;1093;25941;-71
2021/05/01 00:26:39;;;;;;;18.40;14.07;;;;;;;7.42;65.14;98305.42;261865;1098;22788;-72
2021/05/01 00:31:42;;;;;;;18.67;14.20;;;;;;;7.40;65.10;98320.88;261759;1093;22822;-71
2021/05/01 00:36:46;;;;;;;18.27;13.97;;;;;;;7.35;65.47;98327.05;262193;1092;22752;-71
2021/05/01 00:41:49;;;;;;;17.60;13.97;;;;;;;7.31;65.40;98336.67;261745;1093;23184;-71
2021/05/01 00:47:12;;;;;;;19.67;14.67;;;;;;;7.29;65.32;98328.14;261882;1093;23050;-71
2021/05/01 00:52:18;;;;;;;18.97;14.27;;;;;;;7.29;65.63;98314.81;261763;1098;22758;-72
2021/05/01 00:57:21;;;;;;;17.47;13.60;;;;;;;7.31;66.00;98321.47;262293;1093;22870;-71
2021/05/01 01:02:28;;;;;;;19.13;14.33;;;;;;;7.30;66.04;98317.23;262216;1098;22731;-71
2021/05/01 01:07:33;;;;;;;16.53;13.27;;;;;;;7.29;66.46;98315.63;262225;1093;27326;-72
2021/05/01 01:12:36;;;;;;;18.03;13.63;;;;;;;7.25;65.91;98311.14;262155;1098;22766;-71
2021/05/01 01:17:39;;;;;;;20.10;14.30;;;;;;;7.22;66.48;98317.00;261942;1093;22929;-71
2021/05/01 01:22:42;;;;;;;18.30;13.67;;;;;;;7.21;66.39;98318.88;262193;1093;23321;-71
2021/05/01 01:27:46;;;;;;;19.33;13.10;;;;;;;7.17;66.94;98318.63;262155;1098;24408;-71
2021/05/01 01:32:49;;;;;;;16.77;12.53;;;;;;;7.12;67.29;98323.19;261883;1098;24134;-70
2021/05/01 01:37:53;;;;;;;16.67;12.30;;;;;;;7.07;66.74;98305.39;261781;1092;25960;-71
2021/05/01 01:42:56;;;;;;;18.80;14.40;;;;;;;7.02;67.73;98311.55;261797;1093;22787;-70
2021/05/01 01:48:00;;;;;;;18.10;13.10;;;;;;;6.97;67.89;98313.45;261993;1098;22880;-71
2021/05/01 01:53:09;;;;;;;17.43;13.07;;;;;;;6.95;68.21;98315.58;261726;1093;24140;-71
2021/05/01 01:58:12;;;;;;;20.80;15.50;;;;;;;6.93;68.11;98299.88;261823;1098;22838;-71
2021/05/01 02:03:17;;;;;;;20.15;15.70;;;;;;;6.92;68.17;98305.48;262202;1093;22899;-70
2021/05/01 02:08:21;;;;;;;20.70;15.43;;;;;;;6.91;68.18;98307.36;261954;1092;26238;-70
2021/05/01 02:13:30;;;;;;;21.30;16.27;;;;;;;6.99;68.46;98300.64;261857;1098;22866;-72
2021/05/01 02:18:34;;;;;;;18.87;14.77;;;;;;;7.06;68.91;98287.81;262185;1093;25826;-70
2021/05/01 02:23:49;;;;;;;19.40;15.70;;;;;;;7.10;68.63;98288.06;261824;1093;26194;-72
2021/05/01 02:28:55;;;;;;;21.70;16.53;;;;;;;7.12;69.00;98291.23;261906;1093;22771;-72
2021/05/01 02:33:59;;;;;;;20.87;15.53;;;;;;;7.18;69.05;98292.80;262101;1098;22792;-70
2021/05/01 02:39:05;;;;;;;20.70;15.13;;;;;;;7.22;68.67;98275.19;261686;1093;24426;-72
2021/05/01 02:44:08;;;;;;;21.07;14.87;;;;;;;7.25;68.78;98282.63;261747;1093;24413;-70
2021/05/01 02:49:14;;;;;;;21.30;15.27;;;;;;;7.32;68.84;98292.97;261695;1093;22798;-71
2021/05/01 02:54:18;;;;;;;20.50;14.40;;;;;;;7.43;68.50;98293.66;262104;1094;22771;-71
2021/05/01 02:59:29;;;;;;;19.20;12.70;;;;;;;7.51;68.10;98282.41;262067;1093;22800;-72
2021/05/01 03:04:31;;;;;;;36.17;19.63;;;;;;;7.62;68.27;98283.91;261956;1093;27961;-71
2021/05/01 03:09:34;;;;;;;40.10;21.30;;;;;;;7.74;67.59;98267.55;262029;1098;23386;-71
2021/05/01 03:14:38;;;;;;;27.13;17.30;;;;;;;7.84;67.76;98259.43;262190;1098;22902;-71
2021/05/01 03:19:43;;;;;;;23.07;16.27;;;;;;;7.91;67.50;98269.77;262047;1093;23012;-71
2021/05/01 03:24:45;;;;;;;24.47;16.43;;;;;;;7.98;66.89;98262.22;262116;1098;24548;-71
2021/05/01 03:29:49;;;;;;;18.20;12.00;;;;;;;8.06;66.76;98282.16;261896;1094;22734;-71
2021/05/01 03:34:59;;;;;;;12.53;9.23;;;;;;;8.12;66.81;98267.67;262117;1098;22924;-71
2021/05/01 03:40:07;;;;;;;13.25;10.65;;;;;;;8.15;66.46;98268.98;262236;1093;24367;-72
2021/05/01 03:45:11;;;;;;;12.97;10.83;;;;;;;8.17;66.00;98259.62;261835;1093;25826;-71
2021/05/01 03:50:14;;;;;;;12.10;9.90;;;;;;;8.17;66.39;98251.62;261962;1092;25942;-72
2021/05/01 03:55:16;;;;;;;12.95;10.55;;;;;;;8.19;65.63;98238.77;261813;1092;25919;-71
2021/05/01 04:00:27;;;;;;;13.05;10.10;;;;;;;8.16;65.89;98227.89;262088;1098;23438;-70
2021/05/01 04:05:32;;;;;;;12.53;9.90;;;;;;;8.10;65.51;98219.16;262129;1098;25527;-71
2021/05/01 04:10:37;;;;;;;13.43;9.60;;;;;;;8.06;65.74;98212.80;262117;1093;26258;-71
2021/05/01 04:15:41;;;;;;;10.63;8.30;;;;;;;8.04;65.42;98212.27;262036;1093;22929;-71
2021/05/01 04:20:44;;;;;;;11.83;8.93;;;;;;;8.03;65.06;98214.16;262158;1093;25967;-71
2021/05/01 04:25:47;;;;;;;13.70;8.63;;;;;;;8.02;64.95;98217.90;261751;1093;24415;-71
2021/05/01 04:30:49;;;;;;;14.03;9.20;;;;;;;8.02;65.45;98243.79;261771;1092;25995;-71
2021/05/01 04:35:53;;;;;;;14.90;10.47;;;;;;;8.07;64.32;98240.26;261798;1098;22764;-71
2021/05/01 04:40:56;;;;;;;12.30;9.73;;;;;;;8.17;64.91;98240.94;261789;1098;22743;-71
2021/05/01 04:45:59;;;;;;;11.97;9.50;;;;;;;8.31;65.33;98246.38;262129;1094;25682;-71
2021/05/01 04:51:14;;;;;;;12.53;7.87;;;;;;;8.48;64.44;98253.12;261665;1098;22734;-72
2021/05/01 04:56:16;;;;;;;11.97;8.93;;;;;;;8.65;64.76;98257.99;261613;1093;28410;-71
2021/05/01 05:01:36;;;;;;;14.73;10.97;;;;;;;8.77;63.85;98244.20;261896;1093;22904;-71
2021/05/01 05:06:40;;;;;;;18.23;11.70;;;;;;;8.79;63.75;98229.48;262236;1098;22755;-70
2021/05/01 05:11:43;;;;;;;16.47;11.70;;;;;;;8.82;64.07;98228.89;261791;1098;24523;-71
2021/05/01 05:16:45;;;;;;;22.10;14.60;;;;;;;8.91;64.06;98226.34;261780;1093;25858;-70
2021/05/01 05:21:48;;;;;;;18.30;13.87;;;;;;;9.00;63.42;98245.99;261868;1093;22901;-70
2021/05/01 05:26:51;;;;;;;17.67;13.83;;;;;;;9.13;63.57;98249.02;262187;1093;24516;-71
2021/05/01 05:31:53;;;;;;;21.77;14.53;;;;;;;9.18;63.33;98255.07;261815;1093;25893;-71
2021/05/01 05:36:58;;;;;;;23.07;15.73;;;;;;;9.21;63.14;98262.50;262230;1093;25961;-72
2021/05/01 05:42:14;;;;;;;18.90;13.05;;;;;;;9.23;62.66;98248.84;262190;1098;23473;-71
2021/05/01 05:47:37;;;;;;;18.80;13.80;;;;;;;9.37;62.82;98249.70;261878;1098;24403;-70
2021/05/01 05:52:41;;;;;;;17.13;13.93;;;;;;;9.54;62.77;98248.33;262173;1093;25928;-71
2021/05/01 05:58:03;;;;;;;19.43;13.60;;;;;;;9.63;61.97;98265.29;261758;1098;22890;-72
2021/05/01 06:03:07;;;;;;;18.10;13.63;;;;;;;9.70;62.35;98276.39;261292;1093;25877;-71
2021/05/01 06:08:10;;;;;;;21.03;16.07;;;;;;;9.72;61.91;98276.91;262022;1098;22784;-71
2021/05/01 06:13:15;;;;;;;18.47;14.23;;;;;;;9.68;61.84;98281.26;261983;1093;22967;-71
2021/05/01 06:18:23;;;;;;;21.93;15.30;;;;;;;9.63;62.74;98286.69;261972;1098;22761;-71
2021/05/01 06:23:25;;;;;;;18.87;13.93;;;;;;;9.54;63.37;98288.44;262228;1093;22800;-71
2021/05/01 06:28:31;;;;;;;22.67;16.97;;;;;;;9.40;63.83;98291.06;262139;1093;24517;-71
2021/05/01 06:33:41;;;;;;;20.80;15.20;;;;;;;9.28;64.99;98294.20;262287;1098;22748;-72
2021/05/01 06:38:44;;;;;;;22.73;16.87;;;;;;;9.17;65.49;98282.09;262025;1098;22728;-72
2021/05/01 06:44:08;;;;;;;30.13;19.03;;;;;;;9.16;66.90;98286.62;262161;1094;24044;-74
2021/05/01 06:49:34;;;;;;;26.93;18.80;;;;;;;9.15;67.28;98284.23;261799;1098;22738;-72
2021/05/01 06:54:37;;;;;;;20.87;16.47;;;;;;;9.07;67.09;98291.83;261810;1098;22779;-73
2021/05/01 06:59:56;;;;;;;21.30;16.77;;;;;;;9.00;67.94;98271.92;261849;1093;25476;-72
2021/05/01 07:05:25;;;;;;;26.33;18.67;;;;;;;8.97;69.08;98281.30;261903;1093;23279;-71
2021/05/01 07:10:28;;;;;;;27.08;20.03;;;;;;;8.87;69.17;98286.77;261996;1098;22741;-71
2021/05/01 07:15:32;;;;;;;29.67;21.27;;;;;;;8.71;69.64;98284.31;262231;1098;23460;-71
2021/05/01 07:20:37;;;;;;;30.07;20.83;;;;;;;8.60;70.46;98295.43;262151;1093;22772;-71
2021/05/01 07:25:41;;;;;;;29.87;20.20;;;;;;;8.54;71.04;98292.03;262603;1093;26236;-71
2021/05/01 07:30:46;;;;;;;21.80;17.57;;;;;;;8.47;71.18;98295.05;262254;1098;22904;-71
2021/05/01 07:35:53;;;;;;;24.00;18.27;;;;;;;8.43;71.73;98299.33;261897;1093;22741;-72
2021/05/01 07:41:01;;;;;;;29.73;18.60;;;;;;;8.42;72.20;98296.95;261957;1093;24667;-72
2021/05/01 07:46:07;;;;;;;24.63;16.13;;;;;;;8.42;72.06;98302.30;261884;1093;22757;-71
2021/05/01 07:51:09;;;;;;;27.07;20.43;;;;;;;8.40;71.90;98298.02;261757;1098;22755;-71
2021/05/01 07:56:13;;;;;;;27.90;19.30;;;;;;;8.48;72.56;98287.82;261873;1098;22916;-71
2021/05/01 08:01:16;;;;;;;29.03;19.37;;;;;;;8.55;72.19;98313.10;261831;1098;22744;-70
2021/05/01 08:06:18;;;;;;;200.30;134.30;;;;;;;8.55;72.07;98291.74;262152;1094;22751;-71
2021/05/01 08:11:22;;;;;;;52.07;32.33;;;;;;;8.68;72.92;98300.14;261859;1098;22904;-71
2021/05/01 08:16:26;;;;;;;49.93;30.73;;;;;;;8.76;72.38;98306.70;262241;1093;25964;-71
2021/05/01 08:21:30;;;;;;;50.07;31.27;;;;;;;8.88;72.53;98305.21;262287;1092;25851;-72
2021/05/01 08:26:34;;;;;;;34.70;23.27;;;;;;;9.06;72.66;98322.30;262077;1093;25967;-70
2021/05/01 08:31:38;;;;;;;33.43;23.73;;;;;;;9.12;72.45;98317.70;262299;1093;25944;-70
2021/05/01 08:36:42;;;;;;;28.93;21.03;;;;;;;9.19;72.36;98319.98;261913;1098;23465;-71
2021/05/01 08:41:47;;;;;;;33.27;21.47;;;;;;;9.15;72.65;98332.34;261938;1094;25859;-70
2021/05/01 08:46:52;;;;;;;30.67;20.43;;;;;;;9.18;72.20;98329.90;261685;1093;26363;-71
2021/05/01 08:51:56;;;;;;;31.83;23.53;;;;;;;9.23;72.14;98339.70;261800;1093;22791;-69
2021/05/01 08:56:59;;;;;;;32.43;23.50;;;;;;;9.22;72.07;98354.96;261926;1098;22914;-69
2021/05/01 09:02:03;;;;;;;35.87;23.93;;;;;;;9.33;72.29;98357.47;262098;1092;25855;-71
2021/05/01 09:07:07;;;;;;;35.90;25.80;;;;;;;9.47;72.18;98353.00;261796;1093;22775;-70
2021/05/01 09:12:10;;;;;;;33.40;25.57;;;;;;;9.63;72.46;98350.09;262260;1093;22726;-70
2021/05/01 09:17:18;;;;;;;38.33;27.43;;;;;;;9.67;71.96;98341.17;261629;1093;22719;-70
2021/05/01 09:22:21;;;;;;;34.30;24.17;;;;;;;9.70;71.36;98335.23;261878;1092;25827;-70
2021/05/01 09:27:24;;;;;;;34.77;25.17;;;;;;;9.76;71.79;98352.80;262387;1093;23027;-71
2021/05/01 09:32:28;;;;;;;35.93;24.47;;;;;;;9.81;71.80;98340.41;261881;1093;24279;-71
2021/05/01 09:37:36;;;;;;;39.23;27.53;;;;;;;9.84;71.95;98342.52;261640;1093;22751;-71
2021/05/01 09:42:42;;;;;;;40.90;27.20;;;;;;;9.85;71.89;98344.08;261822;1098;22772;-71
2021/05/01 09:47:50;;;;;;;31.77;23.77;;;;;;;9.88;71.93;98320.22;262299;1094;24373;-71
2021/05/01 09:53:02;;;;;;;28.93;21.87;;;;;;;9.93;72.18;98303.28;262133;1093;23622;-72
2021/05/01 09:58:25;;;;;;;29.73;21.47;;;;;;;9.98;72.63;98305.87;262339;1098;23496;-71
2021/05/01 10:03:43;;;;;;;27.20;20.20;;;;;;;9.97;71.90;98309.63;261690;1094;22813;-71
2021/05/01 10:08:54;;;;;;;24.87;18.13;;;;;;;10.01;72.27;98286.55;261987;1092;25804;-71
2021/05/01 10:13:57;;;;;;;23.60;18.90;;;;;;;10.27;72.41;98292.20;262224;1093;22866;-71
2021/05/01 10:19:12;;;;;;;26.30;19.37;;;;;;;10.64;72.44;98283.48;261856;1093;22755;-71
2021/05/01 10:24:15;;;;;;;25.95;18.75;;;;;;;11.09;72.02;98270.96;261823;1098;22842;-71
2021/05/01 10:29:41;;;;;;;24.63;20.17;;;;;;;11.36;71.23;98273.80;261832;1093;22751;-72
2021/05/01 10:34:47;;;;;;;29.20;20.60;;;;;;;11.36;70.71;98271.94;262219;1092;26089;-71
2021/05/01 10:39:56;;;;;;;32.43;25.50;;;;;;;11.60;70.56;98271.60;262233;1092;22759;-71
2021/05/01 10:45:00;;;;;;;27.00;22.37;;;;;;;11.62;69.38;98298.12;262005;1093;25855;-70
2021/05/01 10:50:18;;;;;;;31.75;24.85;;;;;;;11.55;69.58;98295.08;261853;1093;22823;-71
2021/05/01 10:55:22;;;;;;;37.47;25.37;;;;;;;11.49;69.39;98286.37;262074;1098;23357;-71
2021/05/01 11:00:44;;;;;;;40.50;28.90;;;;;;;11.52;69.03;98283.06;262156;1098;22794;-70
2021/05/01 11:05:52;;;;;;;43.07;29.37;;;;;;;11.52;68.79;98277.70;262186;1093;22828;-71
2021/05/01 11:10:56;;;;;;;40.00;28.35;;;;;;;11.49;69.44;98289.05;262069;1093;22858;-70
2021/05/01 11:16:04;;;;;;;41.90;30.83;;;;;;;11.61;68.82;98291.16;262160;1093;25967;-71
2021/05/01 11:21:09;;;;;;;54.25;38.05;;;;;;;11.71;69.21;98295.48;262316;1093;22766;-70
2021/05/01 11:26:13;;;;;;;47.60;32.55;;;;;;;11.62;68.39;98308.84;262237;1093;22747;-70
2021/05/01 11:31:34;;;;;;;40.60;28.75;;;;;;;11.57;68.55;98325.88;262358;1093;22800;-71
2021/05/01 11:37:04;;;;;;;38.95;31.35;;;;;;;11.52;68.88;98335.94;261938;1098;23066;-72
2021/05/01 11:42:07;;;;;;;42.90;32.75;;;;;;;11.38;68.89;98344.81;262344;1092;25947;-70
2021/05/01 11:47:12;;;;;;;30.70;23.35;;;;;;;11.21;69.21;98352.73;262064;1098;22915;-69
2021/05/01 11:52:28;;;;;;;24.23;19.53;;;;;;;11.07;69.32;98355.45;262437;1092;22855;-71
2021/05/01 11:58:00;;;;;;;25.85;19.40;;;;;;;10.87;69.52;98362.83;261926;1093;23451;-71
2021/05/01 12:03:16;;;;;;;24.30;19.10;;;;;;;10.66;69.81;98324.95;262055;1098;23050;-70
2021/05/01 12:08:24;;;;;;;21.33;17.70;;;;;;;10.64;70.28;98300.34;262015;1093;23163;-71
2021/05/01 12:13:42;;;;;;;21.90;17.27;;;;;;;10.71;70.59;98295.36;262114;1093;27239;-71
2021/05/01 12:18:47;;;;;;;22.40;17.85;;;;;;;11.01;70.69;98273.55;262287;1093;25931;-71
2021/05/01 12:23:55;;;;;;;24.90;19.37;;;;;;;11.16;70.27;98270.52;262112;1093;26194;-71
2021/05/01 12:34:54;;;;;;;24.85;19.70;;;;;;;11.13;70.09;98279.95;262076;1093;22797;-71
2021/05/01 12:40:16;;;;;;;25.40;20.20;;;;;;;11.08;70.03;98279.28;261825;1093;25877;-72
2021/05/01 12:45:36;;;;;;;26.90;20.43;;;;;;;11.02;70.56;98288.55;262056;1093;25928;-71
2021/05/01 12:50:42;;;;;;;24.90;19.77;;;;;;;11.05;70.43;98302.14;262066;1093;22738;-73
2021/05/01 12:56:25;;;;;;;28.55;21.15;;;;;;;11.09;70.43;98307.67;262389;1098;22806;-71
2021/05/01 13:01:34;;;;;;;26.20;18.50;;;;;;;11.09;70.47;98291.59;262408;1093;23707;-71
2021/05/01 13:06:44;;;;;;;25.73;20.37;;;;;;;11.13;70.61;98285.31;262115;1098;22744;-71
2021/05/01 13:12:16;;;;;;;25.73;21.30;;;;;;;11.26;70.74;98282.88;262021;1098;22822;-72
2021/05/01 13:17:25;;;;;;;25.90;18.70;;;;;;;11.45;70.33;98263.94;261983;1093;24415;-71
2021/05/01 13:22:30;;;;;;;22.07;16.17;;;;;;;11.69;70.21;98254.77;262077;1093;22766;-71
2021/05/01 13:27:37;;;;;;;25.50;20.63;;;;;;;11.90;70.05;98245.05;262333;1098;22890;-71
2021/05/01 13:32:40;;;;;;;28.00;22.55;;;;;;;12.01;69.60;98242.14;262277;1092;25891;-71
2021/05/01 13:37:58;;;;;;;28.53;21.27;;;;;;;12.15;69.42;98234.76;262166;1098;24137;-71
2021/05/01 13:43:05;;;;;;;31.90;22.63;;;;;;;12.56;69.08;98230.09;262018;1093;22729;-71
2021/05/01 13:48:08;;;;;;;31.07;23.63;;;;;;;12.80;68.59;98237.70;262184;1094;22737;-71
2021/05/01 13:53:18;;;;;;;29.70;22.70;;;;;;;12.81;67.88;98234.69;261681;1098;22952;-72
2021/05/01 13:58:20;;;;;;;33.57;26.17;;;;;;;12.99;68.06;98248.14;262271;1093;25822;-71
2021/05/01 14:03:27;;;;;;;43.90;33.05;;;;;;;13.22;67.79;98238.02;261824;1093;22787;-71
2021/05/01 14:08:32;;;;;;;37.20;25.80;;;;;;;13.24;66.85;98240.38;261801;1093;26191;-71
2021/05/01 14:13:36;;;;;;;44.03;30.37;;;;;;;13.12;66.49;98255.27;261828;1098;23701;-72
2021/05/01 14:18:39;;;;;;;35.30;27.00;;;;;;;12.93;66.48;98249.42;262124;1098;24418;-72
2021/05/01 14:23:45;;;;;;;30.50;22.43;;;;;;;12.90;66.76;98250.84;261790;1098;24405;-71
2021/05/01 14:28:48;;;;;;;34.10;24.65;;;;;;;12.92;67.04;98239.77;261990;1093;24045;-72
2021/05/01 14:33:56;;;;;;;38.40;28.70;;;;;;;13.10;67.09;98229.80;262077;1092;25843;-71
2021/05/01 14:39:00;;;;;;;40.67;29.03;;;;;;;13.11;66.28;98237.55;261853;1098;22746;-71
2021/05/01 14:44:17;;;;;;;39.35;29.85;;;;;;;13.05;66.54;98236.11;262101;1093;24419;-71
2021/05/01 14:49:44;;;;;;;37.70;26.40;;;;;;;13.07;66.35;98217.00;261840;1093;22753;-71
2021/05/01 14:55:00;;;;;;;41.70;29.10;;;;;;;13.02;66.37;98220.62;261604;1098;23190;-71
2021/05/01 15:00:11;;;;;;;32.47;24.63;;;;;;;12.82;65.81;98216.68;262070;1092;25922;-71
2021/05/01 15:05:22;;;;;;;28.27;20.23;;;;;;;12.61;66.44;98221.89;261886;1098;22731;-70
2021/05/01 15:10:32;;;;;;;40.35;28.05;;;;;;;12.38;66.38;98211.29;261876;1098;22734;-71
2021/05/01 15:15:49;;;;;;;37.75;24.48;;;;;;;12.27;66.92;98210.78;262138;1093;26203;-72
2021/05/01 15:21:02;;;;;;;31.65;23.50;;;;;;;12.25;67.28;98209.51;261776;1098;22817;-71
2021/05/01 15:26:26;;;;;;;34.50;25.15;;;;;;;12.22;66.89;98208.23;262050;1093;22813;-71
2021/05/01 15:31:30;;;;;;;37.40;28.05;;;;;;;12.27;67.59;98191.98;262197;1098;23428;-71
2021/05/01 15:36:33;;;;;;;38.05;25.80;;;;;;;12.38;67.46;98181.73;261832;1098;22932;-71
2021/05/01 15:41:36;;;;;;;34.47;25.17;;;;;;;12.57;67.35;98181.42;261972;1098;22913;-71
2021/05/01 15:46:40;;;;;;;33.80;25.00;;;;;;;12.76;66.85;98173.05;262119;1093;22828;-71
2021/05/01 15:51:43;;;;;;;30.95;23.55;;;;;;;12.84;66.60;98176.83;262025;1098;24401;-71
2021/05/01 15:56:45;;;;;;;29.70;22.25;;;;;;;12.77;66.44;98176.52;261659;1098;24112;-71
2021/05/01 16:01:48;;;;;;;33.53;22.70;;;;;;;12.68;66.09;98175.75;261982;1098;24435;-72
2021/05/01 16:06:51;;;;;;;31.03;20.67;;;;;;;12.59;66.61;98170.36;262096;1093;22744;-72
2021/05/01 16:12:08;;;;;;;31.15;23.60;;;;;;;12.54;66.41;98162.47;262031;1093;22803;-72
2021/05/01 16:17:31;;;;;;;29.50;22.27;;;;;;;12.41;66.84;98162.30;262134;1098;22739;-72
2021/05/01 16:22:35;;;;;;;27.65;22.05;;;;;;;12.25;66.92;98161.17;262397;1092;25986;-72
2021/05/01 16:27:39;;;;;;;27.80;19.85;;;;;;;12.06;67.59;98164.94;261853;1093;26216;-72
2021/05/01 16:32:43;;;;;;;28.65;22.05;;;;;;;11.94;67.80;98159.38;262185;1098;22734;-72
2021/05/01 16:37:47;;;;;;;30.70;24.00;;;;;;;11.82;68.38;98154.56;261925;1098;22743;-72
2021/05/01 16:42:50;;;;;;;28.85;22.85;;;;;;;11.72;68.39;98161.01;262022;1098;22755;-72
2021/05/01 16:47:54;;;;;;;32.90;23.10;;;;;;;11.60;69.07;98160.83;261795;1098;22841;-72
2021/05/01 16:52:58;;;;;;;35.90;24.35;;;;;;;11.53;69.29;98174.69;261854;1094;24394;-72
2021/05/01 16:58:00;;;;;;;39.30;27.45;;;;;;;11.44;69.50;98165.80;261572;1093;26210;-71
2021/05/01 17:03:05;;;;;;;35.20;23.55;;;;;;;11.33;69.79;98157.22;261406;1093;24202;-72
2021/05/01 17:08:09;;;;;;;35.95;25.75;;;;;;;11.25;70.14;98157.98;262025;1098;22741;-72
2021/05/01 17:13:14;;;;;;;38.57;27.80;;;;;;;11.21;70.18;98157.02;262214;1093;23072;-71
2021/05/01 17:18:18;;;;;;;35.13;24.53;;;;;;;11.16;70.60;98154.46;261790;1093;27654;-71
2021/05/01 17:23:22;;;;;;;34.00;25.53;;;;;;;11.09;70.82;98154.89;261831;1098;22771;-71
2021/05/01 17:28:31;;;;;;;34.83;25.27;;;;;;;11.05;70.98;98148.56;262055;1093;22737;-71
2021/05/01 17:33:51;;;;;;;30.15;23.65;;;;;;;10.99;71.04;98155.16;261991;1098;22843;-71
2021/05/01 17:38:55;;;;;;;29.97;22.93;;;;;;;10.92;71.33;98164.40;261771;1093;22754;-72
2021/05/01 17:43:58;;;;;;;33.33;24.43;;;;;;;10.88;71.42;98170.68;262096;1093;25951;-71
2021/05/01 17:49:01;;;;;;;35.47;25.77;;;;;;;10.89;71.66;98188.34;261837;1092;26053;-72
2021/05/01 17:54:05;;;;;;;34.37;24.80;;;;;;;10.89;71.92;98193.71;262135;1093;23235;-71
2021/05/01 17:59:07;;;;;;;39.63;27.27;;;;;;;10.88;71.95;98194.80;261868;1093;25840;-72
2021/05/01 18:04:18;;;;;;;33.70;25.50;;;;;;;10.89;72.07;98209.79;261901;1093;25855;-72
2021/05/01 18:09:40;;;;;;;39.63;28.43;;;;;;;10.91;72.22;98208.39;261960;1094;22939;-71
2021/05/01 18:14:45;;;;;;;40.97;29.73;;;;;;;10.89;72.45;98213.25;262234;1098;24406;-71
2021/05/01 18:19:47;;;;;;;39.83;29.10;;;;;;;10.86;72.11;98210.40;261881;1098;22715;-71
2021/05/01 18:24:52;;;;;;;35.10;26.77;;;;;;;10.85;72.34;98206.91;261781;1093;23532;-71
2021/05/01 18:30:05;;;;;;;37.83;27.83;;;;;;;10.85;72.36;98208.81;261940;1093;22949;-72
2021/05/01 18:35:11;;;;;;;40.60;28.37;;;;;;;10.83;72.81;98213.66;262102;1093;24411;-71
2021/05/01 18:40:14;;;;;;;34.43;25.43;;;;;;;10.79;72.55;98216.17;261688;1093;25964;-70
2021/05/01 18:45:18;;;;;;;34.37;25.90;;;;;;;10.78;72.52;98233.34;261871;1093;22816;-71
2021/05/01 18:50:24;;;;;;;38.00;28.33;;;;;;;10.81;72.68;98231.94;261859;1098;22742;-71
2021/05/01 18:55:28;;;;;;;33.40;25.80;;;;;;;10.79;72.77;98230.34;262083;1092;27246;-71
2021/05/01 19:00:31;;;;;;;37.43;24.93;;;;;;;10.77;72.76;98229.06;261738;1093;26483;-71
2021/05/01 19:05:35;;;;;;;43.77;30.17;;;;;;;10.79;72.67;98213.49;261796;1098;22744;-71
2021/05/01 19:10:38;;;;;;;61.20;34.77;;;;;;;10.78;72.76;98203.86;261895;1098;22942;-72
2021/05/01 19:15:45;;;;;;;53.80;30.80;;;;;;;10.76;72.84;98190.77;261885;1093;23079;-72
2021/05/01 19:20:51;;;;;;;42.47;28.37;;;;;;;10.75;72.76;98186.50;261896;1093;24510;-71
2021/05/01 19:25:54;;;;;;;41.83;27.77;;;;;;;10.79;72.98;98171.41;261871;1098;22814;-71
2021/05/01 19:30:59;;;;;;;39.93;29.13;;;;;;;10.79;73.07;98166.05;262139;1098;22741;-72
2021/05/01 19:36:04;;;;;;;35.97;26.03;;;;;;;10.79;73.03;98154.55;262206;1093;26216;-71
2021/05/01 19:41:07;;;;;;;34.33;24.97;;;;;;;10.81;73.13;98140.84;261607;1101;22759;-71
2021/05/01 19:46:14;;;;;;;45.20;35.60;;;;;;;10.81;72.92;98122.09;261462;1101;22754;-72
2021/05/01 19:51:17;;;;;;;46.43;34.27;;;;;;;10.73;72.93;98112.89;262222;1098;24550;-72
2021/05/01 19:56:21;;;;;;;42.73;30.57;;;;;;;10.72;73.20;98098.72;262256;1092;25977;-72
2021/05/01 20:01:24;;;;;;;44.27;31.63;;;;;;;10.71;73.04;98080.27;262188;1094;25967;-71
2021/05/01 20:06:26;;;;;;;55.70;36.30;;;;;;;10.68;73.44;98089.70;262064;1098;22734;-72
2021/05/01 20:11:30;;;;;;;43.93;29.30;;;;;;;10.69;73.03;98077.91;261923;1098;22822;-72
2021/05/01 20:16:33;;;;;;;42.23;30.27;;;;;;;10.73;73.31;98080.74;262270;1098;22768;-72
2021/05/01 20:21:35;;;;;;;45.67;31.27;;;;;;;10.75;73.40;98090.06;261595;1093;26238;-71
2021/05/01 20:26:39;;;;;;;41.57;29.63;;;;;;;10.79;73.40;98077.64;261789;1093;25976;-71
2021/05/01 20:31:42;;;;;;;40.70;29.53;;;;;;;10.75;73.09;98076.67;262010;1092;25970;-72
2021/05/01 20:36:44;;;;;;;43.30;30.37;;;;;;;10.78;73.21;98081.41;262165;1098;22816;-72
2021/05/01 20:41:48;;;;;;;41.30;30.47;;;;;;;10.82;73.14;98070.88;262099;1098;22761;-71
2021/05/01 20:46:53;;;;;;;41.00;28.00;;;;;;;10.82;72.99;98076.23;261710;1094;27253;-71
2021/05/01 20:51:57;;;;;;;40.53;28.73;;;;;;;10.86;73.02;98090.61;262215;1093;26267;-71
2021/05/01 20:57:00;;;;;;;46.10;32.40;;;;;;;10.90;72.93;98098.83;262136;1092;25970;-72
2021/05/01 21:02:04;;;;;;;48.27;34.33;;;;;;;10.94;72.99;98097.91;261963;1093;22738;-72
2021/05/01 21:07:07;;;;;;;57.20;34.35;;;;;;;10.94;72.69;98081.83;262157;1093;22823;-71
2021/05/01 21:12:13;;;;;;;49.47;33.27;;;;;;;10.97;72.80;98069.70;261908;1093;24507;-71
2021/05/01 21:17:39;;;;;;;50.37;34.53;;;;;;;10.96;72.71;98052.81;262233;1093;22755;-71
2021/05/01 21:22:43;;;;;;;43.93;28.83;;;;;;;10.92;72.86;98037.67;261820;1093;26250;-71
2021/05/01 21:27:47;;;;;;;49.87;32.03;;;;;;;10.88;72.72;98009.91;262152;1093;26079;-70
2021/05/01 21:32:49;;;;;;;51.50;34.00;;;;;;;10.88;72.85;97999.97;261856;1093;25935;-70
2021/05/01 21:37:52;;;;;;;52.87;34.50;;;;;;;10.85;72.89;97989.10;261998;1093;24428;-71
2021/05/01 21:42:54;;;;;;;47.87;31.07;;;;;;;10.82;73.02;97987.83;262108;1093;24409;-71
2021/05/01 21:47:57;;;;;;;54.23;34.60;;;;;;;10.83;73.05;97985.92;261785;1093;22805;-72
2021/05/01 21:53:00;;;;;;;64.10;37.63;;;;;;;10.83;73.14;97984.06;262092;1098;22788;-72
2021/05/01 21:58:03;;;;;;;56.10;34.27;;;;;;;10.81;73.60;97988.91;261776;1093;25974;-71
2021/05/01 22:03:05;;;;;;;60.13;38.23;;;;;;;10.81;73.46;97974.74;262127;1093;22945;-71
2021/05/01 22:08:09;;;;;;;58.60;36.30;;;;;;;10.81;73.44;97959.45;262085;1092;25859;-72
2021/05/01 22:13:13;;;;;;;59.97;36.47;;;;;;;10.82;73.49;97954.90;262176;1093;22729;-72
2021/05/01 22:18:15;;;;;;;60.55;37.30;;;;;;;10.84;73.42;97942.75;261891;1093;22755;-71
2021/05/01 22:28:38;;;;;;;48.57;28.83;;;;;;;10.82;73.53;97926.20;262103;1093;22741;-71
2021/05/01 22:33:41;;;;;;;57.10;35.23;;;;;;;10.77;73.27;97913.75;261820;1098;22758;-71
2021/05/01 22:38:44;;;;;;;59.07;35.57;;;;;;;10.79;73.54;97914.22;261795;1098;22799;-72
2021/05/01 22:43:51;;;;;;;60.77;36.00;;;;;;;10.78;73.36;97903.81;261973;1098;24122;-72
2021/05/01 22:48:57;;;;;;;51.90;33.93;;;;;;;10.75;73.59;97896.41;261922;1093;26290;-72
2021/05/01 22:54:00;;;;;;;47.07;33.07;;;;;;;10.77;73.68;97894.19;262162;1093;22738;-71
2021/05/01 22:59:04;;;;;;;43.15;29.90;;;;;;;10.79;73.68;97883.97;261875;1093;22726;-71
2021/05/01 23:04:11;;;;;;;42.70;30.87;;;;;;;10.79;73.62;97868.67;262046;1093;26292;-71
2021/05/01 23:09:14;;;;;;;38.40;27.03;;;;;;;10.79;73.57;97855.28;261893;1093;26288;-71
2021/05/01 23:14:33;;;;;;;40.23;26.53;;;;;;;10.78;73.67;97845.66;261887;1098;24552;-71
2021/05/01 23:19:50;;;;;;;44.10;30.45;;;;;;;10.75;73.52;97840.92;262118;1093;22816;-72
2021/05/01 23:25:16;;;;;;;40.97;26.93;;;;;;;10.70;73.59;97826.89;261803;1094;22987;-71
2021/05/01 23:30:21;;;;;;;37.87;26.90;;;;;;;10.66;73.80;97826.75;261938;1098;22731;-72